Time;durP1;ratioP1;P1;durP2;ratioP2;P2;SDS_P1;SDS_P2;PMS_P1;PMS_P2;Temp;Humidity;BMP_temperature;BMP_pressure;BME280_temperature;BME280_humidity;BME280_pressure;Samples;Min_cycle;Max_cycle;Signal;HPM_P1;HPM_P2
2022/03/09 00:02:18;;;;;;;0.15;0.15;;;0.00;1.00;226.50;231333.00;;;;5012036;28;20195;-72
2022/03/09 00:04:46;;;;;;;0.10;0.10;;;0.00;1.00;226.50;231333.00;;;;5011583;28;20203;-72
2022/03/09 00:07:14;;;;;;;0.10;0.10;;;-0.20;1.00;226.50;231333.00;;;;5011335;28;20250;-72
2022/03/09 00:09:42;;;;;;;0.20;0.20;;;-0.20;1.00;226.50;231333.00;;;;5011411;28;20222;-72
2022/03/09 00:12:11;;;;;;;0.20;0.20;;;-0.20;1.00;226.50;231333.00;;;;4997305;28;20195;-72
2022/03/09 00:14:40;;;;;;;0.10;0.10;;;-0.20;1.00;226.50;231333.00;;;;5011650;28;20546;-72
2022/03/09 00:17:08;;;;;;;0.10;0.10;;;-0.30;90.10;226.50;231333.00;;;;5009016;28;20277;-73
2022/03/09 00:19:36;;;;;;;0.10;0.10;;;-0.30;99.90;226.50;231333.00;;;;5011046;28;20204;-72
2022/03/09 00:22:05;;;;;;;0.10;0.10;;;-0.20;99.90;226.50;231333.00;;;;5010275;28;20253;-71
2022/03/09 00:24:33;;;;;;;0.10;0.10;;;-0.20;1.00;226.50;231333.00;;;;5010846;28;20298;-71
2022/03/09 00:27:03;;;;;;;0.20;0.20;;;-0.20;1.00;226.50;231333.00;;;;5011345;28;20633;-71
2022/03/09 00:29:33;;;;;;;0.20;0.20;;;-0.40;1.00;226.50;231333.00;;;;5011779;28;20669;-71
2022/03/09 00:32:01;;;;;;;0.10;0.10;;;-0.30;99.90;226.50;231333.00;;;;5011766;28;20200;-71
2022/03/09 00:34:29;;;;;;;0.20;0.20;;;-0.40;99.90;226.50;231333.00;;;;5011324;28;20282;-71
2022/03/09 00:36:57;;;;;;;0.20;0.20;;;-0.30;99.90;226.50;231333.00;;;;5006272;28;20218;-71
2022/03/09 00:39:26;;;;;;;0.10;0.10;;;-0.20;1.00;226.50;231333.00;;;;5010517;28;20565;-71
2022/03/09 00:41:54;;;;;;;0.10;0.10;;;-0.30;1.00;226.50;231333.00;;;;5011602;28;20191;-71
2022/03/09 00:44:22;;;;;;;0.17;0.17;;;-0.30;25.00;226.50;231333.00;;;;5011275;28;20207;-71
2022/03/09 00:46:51;;;;;;;0.10;0.10;;;-0.20;13.70;226.50;231333.00;;;;5011131;28;20563;-71
2022/03/09 00:49:19;;;;;;;0.10;0.10;;;-0.30;1.00;226.50;231333.00;;;;5011582;28;20196;-71
2022/03/09 00:51:47;;;;;;;0.10;0.10;;;-0.40;1.00;226.50;231333.00;;;;5009381;28;20680;-70
2022/03/09 00:54:16;;;;;;;0.10;0.10;;;-0.30;1.00;226.50;231333.00;;;;5011578;28;20229;-70
2022/03/09 00:56:44;;;;;;;0.10;0.10;;;-0.40;13.30;226.50;231333.00;;;;5025513;28;20219;-71
2022/03/09 00:59:12;;;;;;;0.20;0.20;;;-0.60;99.90;226.50;231333.00;;;;5007472;28;20204;-70
2022/03/09 01:01:40;;;;;;;0.20;0.20;;;-0.70;99.90;226.50;231333.00;;;;5009522;28;20266;-71
2022/03/09 01:04:11;;;;;;;0.20;0.20;;;-0.80;1.00;226.50;231333.00;;;;5011335;28;20607;-71
2022/03/09 01:06:41;;;;;;;0.10;0.10;;;-0.90;1.00;226.50;231333.00;;;;5010722;28;20242;-71
2022/03/09 01:09:09;;;;;;;0.20;0.20;;;-0.90;1.00;226.50;231333.00;;;;5011192;28;20199;-70
2022/03/09 01:11:37;;;;;;;0.20;0.20;;;-1.00;1.00;226.50;231333.00;;;;5005091;28;20208;-70
2022/03/09 01:14:05;;;;;;;0.20;0.20;;;-1.00;1.00;226.50;231333.00;;;;5010903;28;20196;-71
2022/03/09 01:16:33;;;;;;;0.10;0.10;;;-1.00;1.00;226.50;231333.00;;;;5010923;28;20223;-71
2022/03/09 01:19:01;;;;;;;0.13;0.13;;;-1.00;1.00;226.50;231333.00;;;;5007643;28;20653;-71
2022/03/09 01:21:34;;;;;;;0.20;0.20;;;-1.00;1.00;226.50;231333.00;;;;5009667;28;20297;-71
2022/03/09 01:24:02;;;;;;;0.20;0.20;;;-1.00;1.00;226.50;231333.00;;;;5010693;28;20196;-71
2022/03/09 01:26:30;;;;;;;0.10;0.10;;;-1.10;1.00;226.50;231333.00;;;;5004957;28;20282;-71
2022/03/09 01:28:58;;;;;;;0.20;0.20;;;-1.20;1.00;226.50;231333.00;;;;5009024;28;20227;-71
2022/03/09 01:31:26;;;;;;;0.13;0.13;;;-1.20;1.00;226.50;231333.00;;;;5010686;28;20200;-71
2022/03/09 01:33:54;;;;;;;0.20;0.20;;;-1.20;1.00;226.50;231333.00;;;;5005384;28;20669;-70
2022/03/09 01:36:23;;;;;;;0.20;0.20;;;-1.20;1.00;226.50;231333.00;;;;5011427;28;20665;-72
2022/03/09 01:38:53;;;;;;;0.17;0.17;;;-1.20;21.70;226.50;231333.00;;;;5013913;28;20253;-71
2022/03/09 01:41:21;;;;;;;0.10;0.10;;;-1.20;99.90;226.50;231333.00;;;;5014207;28;20249;-71
2022/03/09 01:44:09;;;;;;;0.17;0.17;;;-1.10;93.20;226.50;231333.00;;;;5014670;28;20266;-72
2022/03/09 01:46:38;;;;;;;0.20;0.20;;;-1.20;93.10;226.50;231333.00;;;;5013983;28;20310;-72
2022/03/09 01:49:08;;;;;;;0.20;0.20;;;-1.20;37.90;226.50;231333.00;;;;5015765;28;20227;-72
2022/03/09 01:51:39;;;;;;;0.10;0.10;;;-1.30;99.90;226.50;231333.00;;;;5016727;28;20606;-71
2022/03/09 01:54:09;;;;;;;0.10;0.10;;;-1.20;99.90;226.50;231333.00;;;;5019208;28;20184;-73
2022/03/09 01:56:39;;;;;;;0.20;0.20;;;-1.30;99.90;226.50;231333.00;;;;5019275;28;20273;-72
2022/03/09 01:59:11;;;;;;;0.10;0.10;;;-1.30;99.90;226.50;231333.00;;;;5019623;28;20215;-73
2022/03/09 02:01:39;;;;;;;0.20;0.20;;;-1.30;99.90;226.50;231333.00;;;;5013962;28;20196;-73
2022/03/09 02:04:08;;;;;;;0.20;0.20;;;-1.30;99.90;226.50;231333.00;;;;5005100;28;20227;-73
2022/03/09 02:06:38;;;;;;;0.10;0.10;;;-1.20;99.90;226.50;231333.00;;;;5013592;28;20794;-73
2022/03/09 02:11:58;;;;;;;0.10;0.10;;;-1.20;99.90;226.50;231333.00;;;;5013318;28;20192;-72
2022/03/09 02:14:31;;;;;;;0.20;0.20;;;-1.20;43.60;226.50;231333.00;;;;5013966;28;20196;-73
2022/03/09 02:17:06;;;;;;;0.10;0.10;;;-1.30;1.00;226.50;231333.00;;;;5013289;28;20219;-73
2022/03/09 02:19:35;;;;;;;0.20;0.20;;;-1.40;99.90;226.50;231333.00;;;;5013943;28;20203;-74
2022/03/09 02:22:11;;;;;;;0.20;0.20;;;-1.40;99.90;226.50;231333.00;;;;5013715;28;20191;-74
2022/03/09 02:24:41;;;;;;;0.20;0.20;;;-1.40;99.90;226.50;231333.00;;;;5006521;28;20194;-74
2022/03/09 02:27:09;;;;;;;0.20;0.20;;;-1.40;99.90;226.50;231333.00;;;;5012956;28;20227;-74
2022/03/09 02:29:37;;;;;;;0.20;0.20;;;-1.40;99.90;226.50;231333.00;;;;5013835;28;20265;-74
2022/03/09 02:32:06;;;;;;;0.10;0.10;;;-1.40;99.90;226.50;231333.00;;;;5013381;28;20184;-75
2022/03/09 02:34:35;;;;;;;0.20;0.20;;;-1.40;99.90;226.50;231333.00;;;;5013595;28;20253;-73
2022/03/09 02:37:04;;;;;;;0.10;0.10;;;-1.50;99.90;226.50;231333.00;;;;5013424;28;20767;-73
2022/03/09 02:39:32;;;;;;;0.20;0.20;;;-1.40;99.90;226.50;231333.00;;;;5012539;28;20740;-73
2022/03/09 02:42:01;;;;;;;0.20;0.20;;;-1.40;99.90;226.50;231333.00;;;;5013539;28;20192;-73
2022/03/09 02:44:29;;;;;;;0.20;0.20;;;-1.40;84.00;226.50;231333.00;;;;5012330;28;20254;-73
2022/03/09 02:46:57;;;;;;;0.10;0.10;;;-1.30;99.90;226.50;231333.00;;;;5012358;28;20214;-73
2022/03/09 02:49:26;;;;;;;0.20;0.20;;;-1.30;3.30;226.50;231333.00;;;;5012788;28;20227;-73
2022/03/09 02:51:54;;;;;;;0.20;0.20;;;-1.30;1.00;226.50;231333.00;;;;5013342;28;20250;-72
2022/03/09 02:54:22;;;;;;;0.20;0.20;;;-1.40;1.00;226.50;231333.00;;;;5010434;28;20204;-73
2022/03/09 02:56:50;;;;;;;0.20;0.20;;;-1.40;49.80;226.50;231333.00;;;;5012578;28;20216;-71
2022/03/09 02:59:19;;;;;;;0.10;0.10;;;-1.30;1.00;226.50;231333.00;;;;5013430;28;20206;-71
2022/03/09 03:01:47;;;;;;;0.20;0.20;;;-1.30;1.00;226.50;231333.00;;;;5006097;28;20330;-72
2022/03/09 03:04:15;;;;;;;0.17;0.17;;;-1.50;1.00;226.50;231333.00;;;;5014665;28;20246;-72
2022/03/09 03:06:45;;;;;;;0.20;0.20;;;-1.50;1.00;226.50;231333.00;;;;5012402;28;20238;-75
2022/03/09 03:09:13;;;;;;;0.20;0.20;;;-1.60;57.10;226.50;231333.00;;;;5013449;28;20219;-73
2022/03/09 03:11:41;;;;;;;0.20;0.20;;;-1.60;99.90;226.50;231333.00;;;;5009485;28;20201;-73
2022/03/09 03:14:09;;;;;;;0.20;0.20;;;-1.50;99.90;226.50;231333.00;;;;5013749;28;20271;-72
2022/03/09 03:16:39;;;;;;;0.20;0.20;;;-1.40;99.90;226.50;231333.00;;;;5013337;28;20220;-72
2022/03/09 03:19:07;;;;;;;0.20;0.20;;;-1.30;99.90;226.50;231333.00;;;;5013957;28;20556;-73
2022/03/09 03:21:37;;;;;;;0.20;0.20;;;-1.20;4.40;226.50;231333.00;;;;5013640;28;20231;-73
2022/03/09 03:24:07;;;;;;;0.10;0.10;;;-1.20;1.00;226.50;231333.00;;;;5013286;28;20270;-74
2022/03/09 03:26:35;;;;;;;0.13;0.13;;;-1.20;1.00;226.50;231333.00;;;;5013287;28;20220;-74
2022/03/09 03:29:03;;;;;;;0.20;0.20;;;-1.40;1.00;226.50;231333.00;;;;5013379;28;20216;-73
2022/03/09 03:31:31;;;;;;;0.20;0.20;;;-1.40;1.00;226.50;231333.00;;;;5013912;28;20192;-73
2022/03/09 03:34:00;;;;;;;0.20;0.20;;;-1.50;1.00;226.50;231333.00;;;;5013446;28;20258;-73
2022/03/09 03:36:29;;;;;;;0.20;0.20;;;-1.60;1.00;226.50;231333.00;;;;5010091;28;20228;-72
2022/03/09 03:38:57;;;;;;;0.10;0.10;;;-1.60;1.00;226.50;231333.00;;;;5011002;28;20200;-72
2022/03/09 03:41:24;;;;;;;0.10;0.10;;;-1.60;1.00;226.50;231333.00;;;;5015715;28;20231;-73
2022/03/09 03:43:54;;;;;;;0.20;0.20;;;-1.60;1.00;226.50;231333.00;;;;5014408;28;20195;-72
2022/03/09 03:46:22;;;;;;;0.10;0.10;;;-1.70;1.00;226.50;231333.00;;;;5015265;28;20196;-72
2022/03/09 03:48:50;;;;;;;0.10;0.10;;;-1.80;4.30;226.50;231333.00;;;;5016055;28;20262;-72
2022/03/09 03:51:20;;;;;;;0.20;0.20;;;-1.90;92.80;226.50;231333.00;;;;5015418;28;20287;-72
2022/03/09 03:53:48;;;;;;;0.20;0.20;;;-1.90;99.90;226.50;231333.00;;;;5013713;28;20544;-72
2022/03/09 03:56:15;;;;;;;0.20;0.20;;;-1.90;99.90;226.50;231333.00;;;;5012655;28;20192;-72
2022/03/09 03:58:43;;;;;;;0.20;0.20;;;-1.90;99.90;226.50;231333.00;;;;5012195;28;20204;-72
2022/03/09 04:01:11;;;;;;;0.20;0.20;;;-2.00;99.90;226.50;231333.00;;;;5006041;28;20242;-71
2022/03/09 04:03:39;;;;;;;0.20;0.20;;;-2.10;99.90;226.50;231333.00;;;;5013450;28;20196;-71
2022/03/09 04:06:07;;;;;;;0.20;0.20;;;-2.10;99.90;226.50;231333.00;;;;5013471;28;20562;-72
2022/03/09 04:08:37;;;;;;;0.20;0.20;;;-2.10;99.90;226.50;231333.00;;;;5011266;28;20258;-72
2022/03/09 04:11:05;;;;;;;0.20;0.20;;;-2.10;99.90;226.50;231333.00;;;;5028957;28;20230;-72
2022/03/09 04:13:33;;;;;;;0.20;0.20;;;-2.10;99.90;226.50;231333.00;;;;5013523;28;20200;-72
2022/03/09 04:16:03;;;;;;;0.15;0.15;;;-2.10;1.00;226.50;231333.00;;;;5012791;28;20217;-72
2022/03/09 04:18:32;;;;;;;0.20;0.20;;;-2.10;1.00;226.50;231333.00;;;;5012763;28;20238;-72
2022/03/09 04:21:00;;;;;;;0.13;0.13;;;-2.00;99.90;226.50;231333.00;;;;5013370;28;20215;-72
2022/03/09 04:23:29;;;;;;;0.20;0.20;;;-2.00;99.90;226.50;231333.00;;;;5013327;28;20265;-72
2022/03/09 04:25:58;;;;;;;0.20;0.20;;;-2.00;99.90;226.50;231333.00;;;;5011063;28;20196;-72
2022/03/09 04:28:27;;;;;;;0.20;0.20;;;-2.00;99.90;226.50;231333.00;;;;5012812;28;20222;-72
2022/03/09 04:30:55;;;;;;;0.20;0.20;;;-2.00;99.90;226.50;231333.00;;;;5010981;28;20196;-72
2022/03/09 04:33:23;;;;;;;0.20;0.20;;;-2.00;99.90;226.50;231333.00;;;;5005419;28;20188;-71
2022/03/09 04:35:51;;;;;;;0.20;0.20;;;-2.00;99.90;226.50;231333.00;;;;5004686;28;20211;-71
2022/03/09 04:38:19;;;;;;;0.20;0.20;;;-2.00;99.90;226.50;231333.00;;;;5012958;28;20258;-72
2022/03/09 04:40:47;;;;;;;0.20;0.20;;;-2.10;99.90;226.50;231333.00;;;;5012209;28;20208;-72
2022/03/09 04:43:17;;;;;;;0.20;0.20;;;-2.00;99.90;226.50;231333.00;;;;5013838;28;20196;-71
2022/03/09 04:45:45;;;;;;;0.20;0.20;;;-1.90;99.90;226.50;231333.00;;;;5012630;28;20654;-71
2022/03/09 04:48:12;;;;;;;0.20;0.20;;;-1.80;99.90;226.50;231333.00;;;;5012763;28;20265;-71
2022/03/09 04:50:41;;;;;;;0.20;0.20;;;-1.80;99.90;226.50;231333.00;;;;5016350;28;20215;-71
2022/03/09 04:53:09;;;;;;;0.20;0.20;;;-1.80;93.00;226.50;231333.00;;;;5015100;28;20739;-71
2022/03/09 04:55:37;;;;;;;0.20;0.20;;;-1.80;99.90;226.50;231333.00;;;;5015088;28;20187;-71
2022/03/09 04:58:05;;;;;;;0.20;0.20;;;-1.90;99.90;226.50;231333.00;;;;5015330;28;20255;-71
2022/03/09 05:00:34;;;;;;;0.20;0.20;;;-1.80;99.90;226.50;231333.00;;;;5015627;28;20685;-71
2022/03/09 05:03:02;;;;;;;0.20;0.20;;;-1.90;91.90;226.50;231333.00;;;;5014502;28;20203;-71
2022/03/09 05:05:32;;;;;;;0.20;0.20;;;-1.90;99.90;226.50;231333.00;;;;5014076;28;20207;-72
2022/03/09 05:08:00;;;;;;;0.20;0.20;;;-1.90;99.90;226.50;231333.00;;;;5009710;28;20270;-71
2022/03/09 05:10:28;;;;;;;0.20;0.20;;;-1.80;24.00;226.50;231333.00;;;;5012395;28;20250;-71
2022/03/09 05:12:56;;;;;;;0.20;0.20;;;-1.80;1.00;226.50;231333.00;;;;5012823;28;20193;-71
2022/03/09 05:15:24;;;;;;;0.20;0.20;;;-1.90;1.00;226.50;231333.00;;;;5015012;28;20215;-71
2022/03/09 05:17:54;;;;;;;0.20;0.20;;;-1.90;1.00;226.50;231333.00;;;;5021308;28;20254;-72
2022/03/09 05:20:23;;;;;;;0.20;0.20;;;-1.80;1.00;226.50;231333.00;;;;5019802;28;20212;-72
2022/03/09 05:22:52;;;;;;;0.20;0.20;;;-1.90;1.00;226.50;231333.00;;;;5018391;28;20740;-72
2022/03/09 05:25:22;;;;;;;0.20;0.20;;;-2.00;1.00;226.50;231333.00;;;;5015132;28;20214;-72
2022/03/09 05:27:50;;;;;;;0.15;0.15;;;-2.10;1.00;226.50;231333.00;;;;5014328;28;20219;-73
2022/03/09 05:30:18;;;;;;;0.20;0.20;;;-2.00;1.00;226.50;231333.00;;;;5016048;28;20212;-72
2022/03/09 05:32:46;;;;;;;0.20;0.20;;;-2.00;1.00;226.50;231333.00;;;;5022229;28;20200;-73
2022/03/09 05:35:15;;;;;;;0.20;0.20;;;-2.20;1.00;226.50;231333.00;;;;5030847;28;20200;-72
2022/03/09 05:37:45;;;;;;;0.20;0.20;;;-2.40;99.90;226.50;231333.00;;;;5030297;28;20223;-72
2022/03/09 05:40:14;;;;;;;0.20;0.20;;;-2.30;99.90;226.50;231333.00;;;;5032348;28;20200;-71
2022/03/09 05:42:44;;;;;;;0.20;0.20;;;-2.30;99.90;226.50;231333.00;;;;5032161;28;20214;-72
2022/03/09 05:45:19;;;;;;;0.20;0.20;;;-2.30;99.90;226.50;231333.00;;;;5032007;28;20218;-71
2022/03/09 05:47:53;;;;;;;0.20;0.20;;;-2.20;99.90;226.50;231333.00;;;;5021338;28;20228;-71
2022/03/09 05:50:23;;;;;;;0.20;0.20;;;-2.20;99.90;226.50;231333.00;;;;5026855;28;20215;-74
2022/03/09 05:52:51;;;;;;;0.20;0.20;;;-2.20;92.60;226.50;231333.00;;;;5015311;28;20192;-72
2022/03/09 05:55:19;;;;;;;0.20;0.20;;;-2.20;91.10;226.50;231333.00;;;;5015511;28;20192;-72
2022/03/09 05:57:47;;;;;;;0.20;0.20;;;-2.10;1.00;226.50;231333.00;;;;5010583;28;20254;-71
2022/03/09 06:00:16;;;;;;;0.20;0.20;;;-2.10;1.00;226.50;231333.00;;;;5015849;28;20194;-73
2022/03/09 06:02:48;;;;;;;0.20;0.20;;;-2.20;1.00;226.50;231333.00;;;;5016082;28;20195;-72
2022/03/09 06:05:19;;;;;;;0.20;0.20;;;-2.20;99.90;226.50;231333.00;;;;5016623;28;20200;-73
2022/03/09 06:07:50;;;;;;;0.20;0.20;;;-2.20;40.70;226.50;231333.00;;;;5017039;28;20212;-73
2022/03/09 06:10:19;;;;;;;0.20;0.20;;;-2.10;1.00;226.50;231333.00;;;;5016968;28;20278;-72
2022/03/09 06:12:50;;;;;;;0.20;0.20;;;-2.20;1.00;226.50;231333.00;;;;5012927;28;20202;-73
2022/03/09 06:15:18;;;;;;;0.20;0.20;;;-2.20;1.00;226.50;231333.00;;;;5013592;28;20378;-72
2022/03/09 06:17:49;;;;;;;0.20;0.20;;;-2.20;99.90;226.50;231333.00;;;;5025186;28;20350;-72
2022/03/09 06:20:19;;;;;;;0.20;0.20;;;-2.10;99.90;226.50;231333.00;;;;5006779;28;20259;-73
2022/03/09 06:22:47;;;;;;;0.20;0.20;;;-2.10;99.90;226.50;231333.00;;;;5012602;28;20250;-72
2022/03/09 06:25:17;;;;;;;0.20;0.20;;;-2.10;99.90;226.50;231333.00;;;;5014250;28;20530;-72
2022/03/09 06:27:48;;;;;;;0.20;0.20;;;-2.20;99.90;226.50;231333.00;;;;5012883;28;20242;-72
2022/03/09 06:30:21;;;;;;;0.10;0.10;;;-2.20;99.90;226.50;231333.00;;;;5006781;28;20257;-71
2022/03/09 06:32:49;;;;;;;0.10;0.10;;;-2.00;99.90;226.50;231333.00;;;;5012193;28;20665;-71
2022/03/09 06:35:17;;;;;;;0.20;0.20;;;-2.00;99.90;226.50;231333.00;;;;5012068;28;20646;-71
2022/03/09 06:37:46;;;;;;;0.20;0.20;;;-2.00;99.90;226.50;231333.00;;;;5012817;28;20216;-71
2022/03/09 06:40:15;;;;;;;0.20;0.20;;;-2.00;99.90;226.50;231333.00;;;;5013437;28;20203;-71
2022/03/09 06:42:43;;;;;;;0.20;0.20;;;-1.90;99.90;226.50;231333.00;;;;5012820;28;20740;-71
2022/03/09 06:45:11;;;;;;;0.20;0.20;;;-1.90;99.90;226.50;231333.00;;;;5013609;28;20250;-71
2022/03/09 06:47:39;;;;;;;0.20;0.20;;;-1.90;99.90;226.50;231333.00;;;;5012288;28;20219;-71
2022/03/09 06:50:11;;;;;;;0.20;0.20;;;-2.00;99.90;226.50;231333.00;;;;5012574;28;20306;-71
2022/03/09 06:52:39;;;;;;;0.20;0.20;;;-1.90;99.90;226.50;231333.00;;;;5013259;28;20203;-72
2022/03/09 06:55:09;;;;;;;0.20;0.20;;;-1.80;99.90;226.50;231333.00;;;;5012996;28;20728;-71
2022/03/09 06:57:38;;;;;;;0.20;0.20;;;-1.70;94.10;226.50;231333.00;;;;5012288;28;20713;-72
2022/03/09 07:00:11;;;;;;;0.20;0.20;;;-1.60;99.90;226.50;231333.00;;;;5012229;28;20259;-72
2022/03/09 07:02:39;;;;;;;0.20;0.20;;;-1.60;31.70;226.50;231333.00;;;;5009769;28;20195;-73
2022/03/09 07:05:09;;;;;;;0.20;0.20;;;-1.40;49.50;226.50;231333.00;;;;5019370;28;20195;-71
2022/03/09 07:07:38;;;;;;;0.20;0.20;;;-1.30;1.00;226.50;231333.00;;;;5019894;28;20704;-72
2022/03/09 07:10:11;;;;;;;0.10;0.10;;;-1.10;1.00;226.50;231333.00;;;;5024094;28;20210;-72
2022/03/09 07:12:44;;;;;;;0.17;0.17;;;-1.00;1.00;226.50;231333.00;;;;5016960;28;20231;-71
2022/03/09 07:15:12;;;;;;;0.20;0.20;;;-1.00;1.00;226.50;231333.00;;;;5018540;28;20196;-71
2022/03/09 07:17:40;;;;;;;0.20;0.20;;;-0.90;99.90;226.50;231333.00;;;;5017088;28;20208;-72
2022/03/09 07:20:10;;;;;;;0.10;0.10;;;-0.70;99.90;226.50;231333.00;;;;5009924;28;20200;-71
2022/03/09 07:22:39;;;;;;;0.20;0.20;;;-0.70;80.30;226.50;231333.00;;;;5007066;28;20657;-71
2022/03/09 07:25:10;;;;;;;0.20;0.20;;;-0.60;65.00;226.50;231333.00;;;;5012498;28;20188;-72
2022/03/09 07:27:38;;;;;;;0.10;0.10;;;-0.50;1.00;226.50;231333.00;;;;5011166;28;20228;-73
2022/03/09 07:30:09;;;;;;;0.10;0.10;;;-0.40;1.00;226.50;231333.00;;;;5018520;28;20567;-71
2022/03/09 07:32:38;;;;;;;0.20;0.20;;;-0.40;1.00;226.50;231333.00;;;;5017930;28;20578;-71
2022/03/09 07:35:22;;;;;;;0.20;0.20;;;-0.20;1.00;226.50;231333.00;;;;5017229;28;20239;-72
2022/03/09 07:37:51;;;;;;;0.20;0.20;;;-0.10;1.00;226.50;231333.00;;;;5019267;28;20219;-72
2022/03/09 07:40:20;;;;;;;0.10;0.10;;;0.10;1.00;226.50;231333.00;;;;5019002;28;20264;-72
2022/03/09 07:42:49;;;;;;;0.13;0.13;;;0.20;1.00;226.50;231333.00;;;;5018162;28;20199;-72
2022/03/09 07:45:23;;;;;;;0.13;0.13;;;0.30;1.00;226.50;231333.00;;;;5019925;28;20242;-71
2022/03/09 07:47:51;;;;;;;0.10;0.10;;;0.30;1.00;226.50;231333.00;;;;5018114;28;20704;-73
2022/03/09 07:50:20;;;;;;;0.10;0.10;;;0.40;1.00;226.50;231333.00;;;;5018705;28;20207;-72
2022/03/09 07:52:48;;;;;;;0.20;0.20;;;0.50;1.00;226.50;231333.00;;;;5019269;28;20295;-71
2022/03/09 07:55:16;;;;;;;0.10;0.10;;;0.60;99.90;226.50;231333.00;;;;5019986;28;20192;-72
2022/03/09 07:57:44;;;;;;;0.20;0.20;;;0.70;1.00;226.50;231333.00;;;;5018748;28;20250;-71
2022/03/09 08:00:13;;;;;;;0.10;0.10;;;0.80;1.00;226.50;231333.00;;;;5021029;28;20584;-71
2022/03/09 08:02:45;;;;;;;0.10;0.10;;;0.90;99.90;226.50;231333.00;;;;5018895;28;20731;-71
2022/03/09 08:05:14;;;;;;;0.20;0.20;;;1.00;99.90;226.50;231333.00;;;;5007124;28;20204;-72
2022/03/09 08:07:42;;;;;;;0.20;0.20;;;1.10;1.00;226.50;231333.00;;;;5008928;28;20215;-71
2022/03/09 08:10:11;;;;;;;0.10;0.10;;;1.20;99.90;226.50;231333.00;;;;5007995;28;20269;-72
2022/03/09 08:12:40;;;;;;;0.15;0.15;;;1.40;1.00;226.50;231333.00;;;;5006534;28;20211;-72
2022/03/09 08:15:11;;;;;;;0.10;0.10;;;1.50;1.00;226.50;231333.00;;;;5011879;28;20188;-71
2022/03/09 08:17:40;;;;;;;0.20;0.20;;;1.60;1.00;226.50;231333.00;;;;5011003;28;20226;-72
2022/03/09 08:20:13;;;;;;;0.10;0.10;;;1.70;99.90;226.50;231333.00;;;;5012218;28;20614;-72
2022/03/09 08:22:42;;;;;;;0.20;0.20;;;1.80;99.90;226.50;231333.00;;;;5012400;28;20203;-73
2022/03/09 08:25:12;;;;;;;0.10;0.10;;;1.90;1.00;226.50;231333.00;;;;5017353;28;20661;-72
2022/03/09 08:27:40;;;;;;;0.10;0.10;;;2.00;1.00;226.50;231333.00;;;;5017558;28;20226;-71
2022/03/09 08:30:09;;;;;;;0.10;0.10;;;2.20;99.90;226.50;231333.00;;;;5017664;28;20194;-72
2022/03/09 08:32:37;;;;;;;0.10;0.10;;;2.30;92.00;226.50;231333.00;;;;5013984;28;20720;-73
2022/03/09 08:35:07;;;;;;;0.10;0.10;;;2.60;1.00;226.50;231333.00;;;;5007152;28;20714;-72
2022/03/09 08:37:36;;;;;;;0.10;0.10;;;2.80;99.90;226.50;231333.00;;;;5001961;28;20224;-71
2022/03/09 08:40:06;;;;;;;0.10;0.10;;;2.90;99.90;226.50;231333.00;;;;5009188;28;20642;-72
2022/03/09 08:42:34;;;;;;;0.10;0.10;;;3.00;1.00;226.50;231333.00;;;;5008506;28;20250;-72
2022/03/09 08:45:02;;;;;;;0.20;0.20;;;3.20;1.00;226.50;231333.00;;;;5010427;28;20203;-72
2022/03/09 08:47:30;;;;;;;0.10;0.10;;;3.30;1.00;226.50;231333.00;;;;5013179;28;20215;-72
2022/03/09 08:49:58;;;;;;;0.10;0.10;;;3.40;1.00;226.50;231333.00;;;;5008306;28;20188;-71
2022/03/09 08:52:48;;;;;;;0.10;0.10;;;3.40;1.00;226.50;231333.00;;;;5015128;28;20251;-72
2022/03/09 08:55:17;;;;;;;0.10;0.10;;;3.50;1.00;226.50;231333.00;;;;5011581;28;20188;-72
2022/03/09 08:57:45;;;;;;;0.10;0.10;;;3.60;1.00;226.50;231333.00;;;;5013385;28;20598;-72
2022/03/09 09:00:14;;;;;;;0.10;0.10;;;3.70;1.00;226.50;231333.00;;;;5014981;28;20534;-71
2022/03/09 09:02:42;;;;;;;0.10;0.10;;;3.90;99.90;226.50;231333.00;;;;5014560;28;20579;-72
2022/03/09 09:05:10;;;;;;;0.10;0.10;;;4.10;99.90;226.50;162314.00;;;;5014583;28;20184;-72
2022/03/09 09:07:38;;;;;;;0.10;0.10;;;4.20;99.90;226.50;231333.00;;;;5015147;28;20306;-73
2022/03/09 09:10:09;;;;;;;0.10;0.10;;;4.40;99.90;226.50;231333.00;;;;5003226;28;20196;-71
2022/03/09 09:12:37;;;;;;;0.10;0.10;;;4.50;99.90;226.50;231333.00;;;;5010143;28;20242;-73
2022/03/09 09:15:07;;;;;;;0.10;0.10;;;4.50;99.90;226.50;231333.00;;;;5014428;28;20602;-72
2022/03/09 09:17:35;;;;;;;0.10;0.10;;;4.60;99.90;226.50;231333.00;;;;5013669;28;20230;-72
2022/03/09 09:20:08;;;;;;;0.10;0.10;;;4.70;99.90;226.50;231333.00;;;;5008861;28;20202;-72
2022/03/09 09:22:42;;;;;;;0.10;0.10;;;4.90;99.90;226.50;231333.00;;;;5013931;28;20287;-72
2022/03/09 09:25:32;;;;;;;0.10;0.10;;;5.00;98.10;226.50;231333.00;;;;5004282;28;20730;-74
2022/03/09 09:28:01;;;;;;;0.10;0.10;;;5.10;99.90;226.50;231333.00;;;;5014545;28;20231;-72
2022/03/09 09:30:30;;;;;;;0.10;0.10;;;5.10;99.90;226.50;231333.00;;;;5017709;28;20258;-72
2022/03/09 09:33:00;;;;;;;0.10;0.10;;;5.20;99.90;226.50;231333.00;;;;5019227;28;20230;-72
2022/03/09 09:35:29;;;;;;;0.10;0.10;;;5.20;99.90;226.50;231333.00;;;;5022200;28;20195;-72
2022/03/09 09:38:08;;;;;;;0.10;0.10;;;5.30;97.30;226.50;231333.00;;;;5021268;28;20252;-71
2022/03/09 09:40:43;;;;;;;0.05;0.05;;;5.40;90.00;226.50;231333.00;;;;5021338;28;20233;-72
2022/03/09 09:43:13;;;;;;;0.10;0.10;;;5.50;91.40;226.50;231333.00;;;;5020980;28;20246;-72
2022/03/09 09:45:44;;;;;;;0.10;0.10;;;5.60;96.40;226.50;231333.00;;;;5021578;28;20295;-72
2022/03/09 09:48:13;;;;;;;0.10;0.10;;;5.70;95.30;226.50;231333.00;;;;5019532;28;20219;-72
2022/03/09 09:50:43;;;;;;;0.10;0.10;;;5.80;58.70;226.50;231333.00;;;;5021268;28;20196;-72
2022/03/09 09:53:15;;;;;;;0.10;0.10;;;6.10;48.10;226.50;231333.00;;;;5022310;28;20580;-72
2022/03/09 09:55:45;;;;;;;0.00;0.00;;;6.20;43.90;226.50;231333.00;;;;5021528;28;20262;-72
2022/03/09 09:58:13;;;;;;;0.00;0.00;;;6.20;36.50;226.50;231333.00;;;;5022160;28;20281;-72
2022/03/09 10:00:44;;;;;;;0.08;0.08;;;6.30;43.20;226.50;231333.00;;;;5019902;28;20200;-72
2022/03/09 10:03:13;;;;;;;0.10;0.10;;;6.40;24.00;226.50;231333.00;;;;5021543;28;20199;-72
2022/03/09 10:05:41;;;;;;;0.08;0.08;;;6.60;17.70;226.50;231333.00;;;;5019936;28;20706;-72
2022/03/09 10:08:19;;;;;;;0.08;0.08;;;6.70;16.30;226.50;231333.00;;;;5021438;28;20237;-74
2022/03/09 10:10:57;;;;;;;0.10;0.10;;;6.80;14.60;226.50;231333.00;;;;5014231;28;20200;-69
2022/03/09 10:13:29;;;;;;;0.03;0.03;;;6.90;12.90;226.50;231333.00;;;;5013843;28;20223;-70
2022/03/09 10:16:19;;;;;;;0.10;0.10;;;6.90;11.10;226.50;231333.00;;;;5014255;28;20188;-70
2022/03/09 10:18:53;;;;;;;0.10;0.10;;;7.00;8.80;226.50;231333.00;;;;5013928;28;20250;-71
2022/03/09 10:21:25;;;;;;;0.03;0.03;;;7.10;8.90;226.50;231333.00;;;;5014730;28;20204;-72
2022/03/09 10:23:57;;;;;;;0.10;0.10;;;7.10;10.50;226.50;231333.00;;;;5014279;28;20212;-72
2022/03/09 10:26:28;;;;;;;0.00;0.00;;;7.10;11.00;226.50;231333.00;;;;5014281;28;20286;-71
2022/03/09 10:29:03;;;;;;;0.10;0.10;;;7.20;6.30;226.50;231333.00;;;;5014303;28;20187;-71
2022/03/09 10:31:37;;;;;;;0.10;0.10;;;7.20;9.10;226.50;231333.00;;;;5014111;28;20250;-71
2022/03/09 10:34:08;;;;;;;0.10;0.10;;;7.30;9.20;226.50;231333.00;;;;5006981;28;20701;-71
2022/03/09 10:36:37;;;;;;;0.10;0.10;;;7.40;5.80;226.50;231333.00;;;;5013165;28;20258;-71
2022/03/09 10:39:17;;;;;;;0.10;0.10;;;7.50;4.40;226.50;231333.00;;;;5021199;28;20187;-72
2022/03/09 10:41:46;;;;;;;0.10;0.10;;;7.50;2.80;226.50;231333.00;;;;5016370;28;20191;-71
2022/03/09 10:44:14;;;;;;;0.10;0.10;;;7.60;2.30;226.50;231333.00;;;;5019955;28;20210;-71
2022/03/09 10:46:46;;;;;;;0.10;0.10;;;7.60;1.00;226.50;231333.00;;;;5016320;28;20223;-72
2022/03/09 10:49:19;;;;;;;0.10;0.10;;;7.60;1.00;226.50;231333.00;;;;5022549;28;20205;-72
2022/03/09 10:51:50;;;;;;;0.10;0.10;;;7.70;1.00;226.50;231333.00;;;;5021038;28;20541;-71
2022/03/09 10:54:23;;;;;;;0.10;0.10;;;7.70;1.00;226.50;231333.00;;;;5020981;28;20891;-71
2022/03/09 10:57:06;;;;;;;0.10;0.10;;;7.80;1.00;226.50;231333.00;;;;5020509;28;20218;-71
2022/03/09 10:59:47;;;;;;;0.00;0.00;;;7.80;1.00;226.50;231333.00;;;;5021096;28;20192;-71